Time;durP1;ratioP1;P1;durP2;ratioP2;P2;SDS_P1;SDS_P2;PMS_P1;PMS_P2;Temp;Humidity;BMP_temperature;BMP_pressure;BME280_temperature;BME280_humidity;BME280_pressure;Samples;Min_cycle;Max_cycle;Signal;HPM_P1;HPM_P2
2022/05/08 00:01:21;;;;;;;8.77;8.03;;;;;;;;;;5017137;28;20551;-55
2022/05/08 00:03:47;;;;;;;8.10;7.40;;;;;;;;;;5018540;28;20193;-55
2022/05/08 00:06:13;;;;;;;7.67;6.97;;;;;;;;;;5042999;28;20617;-56
2022/05/08 00:08:39;;;;;;;8.83;8.03;;;;;;;;;;5031422;28;20252;-55
2022/05/08 00:11:06;;;;;;;8.77;7.70;;;;;;;;;;5037763;28;20297;-55
2022/05/08 00:13:32;;;;;;;8.93;8.03;;;;;;;;;;5020422;28;20302;-57
2022/05/08 00:15:59;;;;;;;8.20;7.40;;;;;;;;;;5036140;28;20191;-56
2022/05/08 00:18:26;;;;;;;7.40;6.70;;;;;;;;;;5014438;28;20633;-55
2022/05/08 00:20:52;;;;;;;6.70;6.10;;;;;;;;;;5038888;28;20719;-56
2022/05/08 00:23:18;;;;;;;7.93;6.80;;;;;;;;;;5032675;28;20214;-54
2022/05/08 00:25:44;;;;;;;7.17;6.57;;;;;;;;;;5041399;28;20186;-54
2022/05/08 00:28:10;;;;;;;8.13;7.43;;;;;;;;;;5016214;28;20188;-55
2022/05/08 00:30:36;;;;;;;7.43;6.77;;;;;;;;;;5032189;28;20202;-57
2022/05/08 00:33:03;;;;;;;6.33;5.83;;;;;;;;;;5031283;28;20685;-55
2022/05/08 00:35:29;;;;;;;7.57;6.80;;;;;;;;;;5031026;28;20189;-55
2022/05/08 00:37:55;;;;;;;6.23;5.63;;;;;;;;;;5028870;28;20223;-55
2022/05/08 00:40:21;;;;;;;6.27;5.77;;;;;;;;;;5019332;28;20185;-54
2022/05/08 00:42:47;;;;;;;6.20;5.63;;;;;;;;;;5010355;28;20292;-55
2022/05/08 00:45:14;;;;;;;6.17;5.57;;;;;;;;;;5007740;28;20628;-55
2022/05/08 00:47:41;;;;;;;6.30;5.70;;;;;;;;;;5036732;28;20185;-55
2022/05/08 00:50:07;;;;;;;6.13;5.60;;;;;;;;;;5031682;28;20321;-55
2022/05/08 00:52:35;;;;;;;6.70;5.87;;;;;;;;;;5034753;28;20205;-54
2022/05/08 00:55:01;;;;;;;6.00;5.50;;;;;;;;;;5031060;28;20201;-53
2022/05/08 00:57:27;;;;;;;5.90;5.27;;;;;;;;;;5030230;28;20709;-55
2022/05/08 00:59:53;;;;;;;5.63;5.13;;;;;;;;;;5008707;28;20180;-54
2022/05/08 01:02:20;;;;;;;5.83;5.23;;;;;;;;;;5033155;28;20186;-53
2022/05/08 01:04:46;;;;;;;5.47;4.27;;;;;;;;;;5016851;28;20182;-54
2022/05/08 01:07:12;;;;;;;4.47;4.17;;;;;;;;;;5040512;28;20309;-55
2022/05/08 01:09:38;;;;;;;5.27;4.77;;;;;;;;;;5027475;28;20520;-54
2022/05/08 01:12:05;;;;;;;4.93;4.43;;;;;;;;;;5035189;28;20205;-54
2022/05/08 01:14:31;;;;;;;4.87;4.47;;;;;;;;;;5008039;28;20269;-54
2022/05/08 01:16:57;;;;;;;5.03;4.53;;;;;;;;;;5036063;28;20235;-55
2022/05/08 01:19:23;;;;;;;4.90;4.50;;;;;;;;;;5010741;28;20335;-54
2022/05/08 01:21:49;;;;;;;4.60;4.20;;;;;;;;;;5032559;28;20185;-55
2022/05/08 01:24:21;;;;;;;4.57;4.17;;;;;;;;;;5026259;28;20227;-54
2022/05/08 01:26:47;;;;;;;5.07;4.23;;;;;;;;;;5038611;28;20587;-55
2022/05/08 01:29:13;;;;;;;4.33;3.93;;;;;;;;;;5029392;28;20186;-54
2022/05/08 01:31:39;;;;;;;5.37;4.00;;;;;;;;;;5031281;28;20184;-53
2022/05/08 01:34:05;;;;;;;4.73;4.33;;;;;;;;;;5035364;28;20199;-55
2022/05/08 01:36:32;;;;;;;4.83;4.10;;;;;;;;;;5032916;28;20189;-54
2022/05/08 01:38:58;;;;;;;4.40;4.00;;;;;;;;;;5025897;28;20242;-56
2022/05/08 01:41:24;;;;;;;4.83;3.93;;;;;;;;;;5038312;28;20791;-53
2022/05/08 01:43:50;;;;;;;3.70;3.40;;;;;;;;;;5052473;28;20267;-56
2022/05/08 01:46:17;;;;;;;4.60;4.20;;;;;;;;;;5038985;28;20229;-55
2022/05/08 01:48:44;;;;;;;4.23;3.93;;;;;;;;;;5054783;28;20653;-54
2022/05/08 01:51:12;;;;;;;4.60;4.20;;;;;;;;;;5036016;28;20302;-55
2022/05/08 01:53:39;;;;;;;3.80;3.50;;;;;;;;;;5055038;28;20339;-57
2022/05/08 01:56:07;;;;;;;4.60;4.20;;;;;;;;;;5055833;28;20315;-54
2022/05/08 01:58:34;;;;;;;4.57;4.13;;;;;;;;;;5062295;28;20189;-55
2022/05/08 02:01:02;;;;;;;4.80;4.30;;;;;;;;;;5034966;28;20625;-55
2022/05/08 02:03:28;;;;;;;4.03;3.73;;;;;;;;;;5046993;28;20188;-55
2022/05/08 02:05:55;;;;;;;4.57;3.80;;;;;;;;;;5045064;28;20180;-55
2022/05/08 02:08:21;;;;;;;4.17;3.77;;;;;;;;;;5043846;28;20265;-54
2022/05/08 02:10:47;;;;;;;4.80;4.40;;;;;;;;;;5038926;28;20286;-54
2022/05/08 02:13:13;;;;;;;5.10;4.30;;;;;;;;;;5063886;28;20214;-54
2022/05/08 02:15:40;;;;;;;3.80;3.50;;;;;;;;;;5063397;28;20236;-55
2022/05/08 02:18:09;;;;;;;4.20;3.80;;;;;;;;;;5038630;28;20192;-55
2022/05/08 02:20:37;;;;;;;3.90;3.60;;;;;;;;;;5039694;28;20590;-55
2022/05/08 02:23:03;;;;;;;5.45;4.13;;;;;;;;;;5058691;28;20425;-54
2022/05/08 02:25:32;;;;;;;4.13;3.83;;;;;;;;;;5057034;28;20189;-54
2022/05/08 02:27:59;;;;;;;4.43;4.03;;;;;;;;;;5063637;28;20184;-55
2022/05/08 02:30:25;;;;;;;4.97;4.57;;;;;;;;;;5049854;28;20177;-55
2022/05/08 02:32:53;;;;;;;5.87;4.17;;;;;;;;;;5039337;28;20511;-56
2022/05/08 02:35:22;;;;;;;4.07;3.70;;;;;;;;;;5055506;28;20189;-55
2022/05/08 02:37:50;;;;;;;4.40;4.00;;;;;;;;;;5052243;28;20202;-54
2022/05/08 02:40:17;;;;;;;4.27;3.97;;;;;;;;;;5035061;28;20169;-54
2022/05/08 02:42:43;;;;;;;5.97;4.53;;;;;;;;;;5026196;28;20228;-55
2022/05/08 02:45:09;;;;;;;4.00;3.60;;;;;;;;;;5036643;28;20204;-54
2022/05/08 02:47:37;;;;;;;6.30;4.10;;;;;;;;;;5027020;28;20208;-55
2022/05/08 02:50:04;;;;;;;4.40;3.93;;;;;;;;;;5031156;28;20277;-55
2022/05/08 02:52:31;;;;;;;4.80;4.27;;;;;;;;;;5039804;28;20181;-55
2022/05/08 02:54:57;;;;;;;4.77;4.30;;;;;;;;;;5040092;28;20177;-55
2022/05/08 03:00:08;;;;;;;4.43;4.07;;;;;;;;;;5032130;28;20647;-54
2022/05/08 03:02:35;;;;;;;5.53;5.03;;;;;;;;;;5035637;28;20651;-54
2022/05/08 03:05:02;;;;;;;5.67;5.07;;;;;;;;;;5030697;28;20186;-57
2022/05/08 03:07:29;;;;;;;7.07;4.77;;;;;;;;;;5034629;28;20182;-55
2022/05/08 03:09:56;;;;;;;5.43;4.90;;;;;;;;;;5031237;28;20212;-55
2022/05/08 03:12:22;;;;;;;4.97;4.50;;;;;;;;;;5036359;28;20192;-55
2022/05/08 03:14:49;;;;;;;5.33;4.77;;;;;;;;;;5034925;28;20194;-55
2022/05/08 03:17:15;;;;;;;6.60;6.00;;;;;;;;;;5031957;28;20655;-55
2022/05/08 03:19:42;;;;;;;5.70;5.23;;;;;;;;;;5040074;28;20196;-54
2022/05/08 03:22:08;;;;;;;6.43;5.83;;;;;;;;;;5035712;28;20220;-54
2022/05/08 03:24:34;;;;;;;6.67;5.80;;;;;;;;;;5029927;28;20596;-55
2022/05/08 03:27:00;;;;;;;6.90;5.53;;;;;;;;;;5034683;28;20178;-54
2022/05/08 03:29:26;;;;;;;6.00;5.40;;;;;;;;;;5026850;28;20197;-52
2022/05/08 03:31:53;;;;;;;19.40;18.20;;;;;;;;;;5034007;28;20201;-53
2022/05/08 03:34:19;;;;;;;6.97;6.37;;;;;;;;;;5024496;28;20596;-54
2022/05/08 03:36:46;;;;;;;6.10;5.60;;;;;;;;;;5036676;28;20192;-55
2022/05/08 03:39:12;;;;;;;10.90;10.10;;;;;;;;;;5036100;28;20220;-54
2022/05/08 03:41:39;;;;;;;6.20;5.67;;;;;;;;;;5038385;28;20865;-54
2022/05/08 03:44:11;;;;;;;6.97;5.97;;;;;;;;;;5060593;28;20274;-52
2022/05/08 03:46:38;;;;;;;7.00;6.30;;;;;;;;;;5057046;28;20221;-54
2022/05/08 03:49:10;;;;;;;6.77;6.20;;;;;;;;;;5038372;28;20271;-54
2022/05/08 03:51:36;;;;;;;7.57;6.83;;;;;;;;;;5036167;28;20236;-54
2022/05/08 03:54:02;;;;;;;6.97;6.27;;;;;;;;;;5030869;28;20313;-53
2022/05/08 03:56:28;;;;;;;7.93;6.83;;;;;;;;;;5054723;28;20176;-54
2022/05/08 03:58:55;;;;;;;7.87;7.07;;;;;;;;;;5034291;28;20173;-54
2022/05/08 04:01:21;;;;;;;11.20;10.37;;;;;;;;;;5038679;28;20173;-54
2022/05/08 04:03:47;;;;;;;6.77;6.17;;;;;;;;;;5061187;28;20181;-54
2022/05/08 04:06:13;;;;;;;7.23;6.53;;;;;;;;;;5053453;28;20176;-53
2022/05/08 04:08:39;;;;;;;8.10;7.30;;;;;;;;;;5044182;28;20218;-54
2022/05/08 04:11:05;;;;;;;6.87;6.30;;;;;;;;;;5055366;28;20230;-53
2022/05/08 04:13:31;;;;;;;6.77;6.17;;;;;;;;;;5031844;28;20216;-53
2022/05/08 04:16:16;;;;;;;6.07;5.57;;;;;;;;;;5052237;28;20711;-53
2022/05/08 04:18:42;;;;;;;7.30;6.43;;;;;;;;;;5055123;28;20259;-53
2022/05/08 04:21:08;;;;;;;9.40;8.60;;;;;;;;;;5057216;28;20176;-52
2022/05/08 04:26:19;;;;;;;6.17;5.57;;;;;;;;;;5054949;28;20183;-54
2022/05/08 04:28:45;;;;;;;7.17;6.57;;;;;;;;;;5053447;28;20184;-55
2022/05/08 04:31:11;;;;;;;6.60;5.87;;;;;;;;;;5051373;28;20253;-54
2022/05/08 04:33:38;;;;;;;6.63;5.80;;;;;;;;;;5030670;28;20619;-53
2022/05/08 04:36:04;;;;;;;6.27;5.67;;;;;;;;;;5035481;28;20208;-53
2022/05/08 04:38:31;;;;;;;6.83;6.00;;;;;;;;;;5039051;28;20541;-55
2022/05/08 04:40:57;;;;;;;7.67;6.80;;;;;;;;;;5048914;28;20224;-54
2022/05/08 04:43:23;;;;;;;7.67;6.27;;;;;;;;;;5055107;28;20232;-54
2022/05/08 04:45:49;;;;;;;6.73;6.00;;;;;;;;;;5058965;28;20183;-53
2022/05/08 04:48:16;;;;;;;6.37;5.77;;;;;;;;;;5054425;28;20193;-53
2022/05/08 04:50:42;;;;;;;6.77;5.90;;;;;;;;;;5062981;28;20760;-54
2022/05/08 04:53:08;;;;;;;6.77;6.10;;;;;;;;;;5032031;28;20208;-53
2022/05/08 04:55:34;;;;;;;6.10;5.57;;;;;;;;;;5051179;28;20492;-54
2022/05/08 04:58:00;;;;;;;7.03;5.97;;;;;;;;;;5033085;28;20181;-55
2022/05/08 05:00:27;;;;;;;9.33;8.53;;;;;;;;;;5050478;28;20279;-54
2022/05/08 05:02:53;;;;;;;7.27;6.10;;;;;;;;;;5061464;28;20241;-55
2022/05/08 05:05:19;;;;;;;6.37;5.77;;;;;;;;;;5035462;28;20702;-54
2022/05/08 05:07:46;;;;;;;7.33;5.93;;;;;;;;;;5035961;28;20614;-53
2022/05/08 05:10:13;;;;;;;8.53;5.70;;;;;;;;;;5050278;28;20193;-53
2022/05/08 05:12:39;;;;;;;8.13;7.13;;;;;;;;;;5065233;28;20200;-53
2022/05/08 05:15:08;;;;;;;7.30;6.40;;;;;;;;;;5064703;28;20208;-53
2022/05/08 05:17:34;;;;;;;7.03;6.33;;;;;;;;;;5055977;28;20173;-53
2022/05/08 05:20:01;;;;;;;7.13;6.43;;;;;;;;;;5060456;28;20183;-53
2022/05/08 05:22:27;;;;;;;6.70;6.00;;;;;;;;;;5052586;28;20239;-56
2022/05/08 05:24:55;;;;;;;7.30;6.03;;;;;;;;;;5056100;28;20176;-53
2022/05/08 05:27:21;;;;;;;7.30;6.40;;;;;;;;;;5050940;28;20599;-55
2022/05/08 05:29:48;;;;;;;6.70;6.00;;;;;;;;;;5045523;28;20321;-54
2022/05/08 05:32:14;;;;;;;7.20;6.27;;;;;;;;;;5057210;28;20174;-53
2022/05/08 05:34:40;;;;;;;6.83;6.13;;;;;;;;;;5054475;28;20287;-54
2022/05/08 05:37:06;;;;;;;8.03;6.23;;;;;;;;;;5034881;28;20185;-54
2022/05/08 05:39:32;;;;;;;8.10;6.43;;;;;;;;;;5055855;28;20184;-55
2022/05/08 05:41:59;;;;;;;6.67;5.70;;;;;;;;;;5065742;28;20673;-53
2022/05/08 05:44:26;;;;;;;8.23;6.33;;;;;;;;;;5054339;28;20754;-53
2022/05/08 05:49:41;;;;;;;9.00;7.03;;;;;;;;;;5052317;28;20191;-54
2022/05/08 05:52:08;;;;;;;7.70;6.80;;;;;;;;;;5053522;28;20193;-54
2022/05/08 05:54:34;;;;;;;10.93;7.30;;;;;;;;;;5061560;28;20634;-54
2022/05/08 05:57:02;;;;;;;6.93;6.20;;;;;;;;;;5040167;28;20651;-55
2022/05/08 05:59:28;;;;;;;8.20;6.37;;;;;;;;;;5040689;28;20185;-54
2022/05/08 06:01:54;;;;;;;8.60;6.63;;;;;;;;;;5060417;28;20260;-54
2022/05/08 06:04:21;;;;;;;7.03;6.37;;;;;;;;;;5057251;28;20624;-54
2022/05/08 06:06:47;;;;;;;8.43;6.80;;;;;;;;;;5041921;28;20185;-54
2022/05/08 06:09:17;;;;;;;9.40;7.00;;;;;;;;;;5054859;28;20184;-53
2022/05/08 06:11:44;;;;;;;10.93;6.50;;;;;;;;;;5027493;28;20781;-55
2022/05/08 06:14:10;;;;;;;11.27;6.57;;;;;;;;;;5036520;28;20271;-53
2022/05/08 06:16:37;;;;;;;10.70;6.43;;;;;;;;;;5056564;28;20718;-53
2022/05/08 06:19:04;;;;;;;7.73;6.50;;;;;;;;;;5053602;28;20225;-55
2022/05/08 06:21:33;;;;;;;10.70;6.83;;;;;;;;;;5036979;28;20215;-54
2022/05/08 06:23:59;;;;;;;11.10;6.80;;;;;;;;;;5059290;28;20191;-54
2022/05/08 06:26:26;;;;;;;6.90;6.20;;;;;;;;;;5059447;28;20220;-54
2022/05/08 06:28:55;;;;;;;6.37;5.50;;;;;;;;;;5048286;28;20181;-53
2022/05/08 06:31:21;;;;;;;6.97;6.00;;;;;;;;;;5055086;28;20263;-53
2022/05/08 06:33:49;;;;;;;10.30;6.40;;;;;;;;;;5039483;28;20285;-54
2022/05/08 06:36:15;;;;;;;9.97;7.00;;;;;;;;;;5057687;28;20209;-54
2022/05/08 06:38:41;;;;;;;10.30;7.00;;;;;;;;;;5064268;28;20646;-53
2022/05/08 06:41:08;;;;;;;10.17;6.83;;;;;;;;;;5035586;28;20204;-54
2022/05/08 06:43:35;;;;;;;6.93;5.70;;;;;;;;;;5057424;28;20570;-54
2022/05/08 06:46:01;;;;;;;8.93;6.07;;;;;;;;;;5037773;28;20189;-53
2022/05/08 06:48:27;;;;;;;7.87;7.00;;;;;;;;;;5050016;28;20188;-55
2022/05/08 06:50:53;;;;;;;9.57;6.47;;;;;;;;;;5056115;28;20820;-53
2022/05/08 06:53:20;;;;;;;13.23;7.67;;;;;;;;;;5062786;28;20283;-54
2022/05/08 06:55:46;;;;;;;10.47;6.23;;;;;;;;;;5061738;28;20607;-54
2022/05/08 06:58:12;;;;;;;8.73;6.23;;;;;;;;;;5037560;28;20611;-53
2022/05/08 07:03:24;;;;;;;12.17;6.50;;;;;;;;;;5052385;28;20263;-54
2022/05/08 07:05:50;;;;;;;8.00;5.87;;;;;;;;;;5063824;28;20191;-54
2022/05/08 07:08:17;;;;;;;13.77;6.13;;;;;;;;;;5049309;28;20199;-53
2022/05/08 07:10:43;;;;;;;9.33;5.07;;;;;;;;;;5055658;28;20185;-54
2022/05/08 07:13:09;;;;;;;7.73;4.97;;;;;;;;;;5053740;28;20209;-54
2022/05/08 07:15:36;;;;;;;10.63;6.33;;;;;;;;;;5032367;28;20185;-53
2022/05/08 07:18:03;;;;;;;11.90;6.23;;;;;;;;;;5035030;28;20307;-53
2022/05/08 07:20:29;;;;;;;14.90;6.97;;;;;;;;;;5049717;28;20194;-54
2022/05/08 07:22:55;;;;;;;9.70;5.47;;;;;;;;;;5028297;28;20306;-53
2022/05/08 07:25:21;;;;;;;8.03;5.37;;;;;;;;;;5054622;28;20231;-56
2022/05/08 07:27:48;;;;;;;7.67;5.23;;;;;;;;;;5058203;28;20181;-54
2022/05/08 07:30:14;;;;;;;15.70;5.80;;;;;;;;;;5033298;28;20272;-54
2022/05/08 07:32:42;;;;;;;9.00;5.37;;;;;;;;;;5033045;28;20670;-53
2022/05/08 07:37:54;;;;;;;12.63;5.37;;;;;;;;;;5047682;28;20184;-56
2022/05/08 07:40:20;;;;;;;10.53;6.00;;;;;;;;;;5051415;28;20184;-52
2022/05/08 07:42:46;;;;;;;9.33;5.53;;;;;;;;;;5064869;28;20754;-54
2022/05/08 07:45:12;;;;;;;7.63;5.23;;;;;;;;;;5060871;28;20426;-53
2022/05/08 07:47:39;;;;;;;8.50;4.80;;;;;;;;;;5049034;28;20172;-54
2022/05/08 07:50:06;;;;;;;7.83;5.23;;;;;;;;;;5066459;28;20179;-54
2022/05/08 07:52:36;;;;;;;11.63;5.13;;;;;;;;;;5031600;28;20208;-53
2022/05/08 07:55:03;;;;;;;10.40;5.10;;;;;;;;;;5060180;28;20177;-53
2022/05/08 07:57:29;;;;;;;8.33;5.30;;;;;;;;;;5047449;28;20182;-54
2022/05/08 07:59:56;;;;;;;10.83;5.47;;;;;;;;;;5037503;28;20177;-52
2022/05/08 08:02:22;;;;;;;9.17;4.53;;;;;;;;;;5038355;28;20248;-54
2022/05/08 08:04:48;;;;;;;10.23;4.83;;;;;;;;;;5050375;28;20257;-54
2022/05/08 08:07:14;;;;;;;7.60;4.57;;;;;;;;;;5061385;28;20181;-54
2022/05/08 08:09:40;;;;;;;8.23;4.80;;;;;;;;;;5061679;28;20187;-53
2022/05/08 08:12:07;;;;;;;7.93;4.70;;;;;;;;;;5051034;28;20479;-53
2022/05/08 08:14:33;;;;;;;9.73;4.80;;;;;;;;;;5055659;28;20205;-53
2022/05/08 08:16:59;;;;;;;6.97;4.97;;;;;;;;;;5054722;28;20272;-54
2022/05/08 08:19:25;;;;;;;4.93;4.43;;;;;;;;;;5053022;28;20218;-54
2022/05/08 08:21:52;;;;;;;10.60;6.30;;;;;;;;;;5053955;28;20177;-53
2022/05/08 08:24:18;;;;;;;7.53;4.93;;;;;;;;;;5059687;28;20181;-53
2022/05/08 08:26:44;;;;;;;14.70;6.17;;;;;;;;;;5051748;28;20192;-53
2022/05/08 08:29:10;;;;;;;10.33;5.50;;;;;;;;;;5052397;28;20181;-55
2022/05/08 08:31:37;;;;;;;8.57;4.70;;;;;;;;;;5039519;28;20284;-54
2022/05/08 08:34:03;;;;;;;9.03;4.67;;;;;;;;;;5032520;28;20301;-53
2022/05/08 08:36:29;;;;;;;8.67;4.30;;;;;;;;;;5050494;28;20169;-54
2022/05/08 08:38:55;;;;;;;9.67;4.30;;;;;;;;;;5053874;28;20184;-53
2022/05/08 08:41:22;;;;;;;8.10;4.53;;;;;;;;;;5069278;28;20200;-54
2022/05/08 08:49:20;;;;;;;12.60;5.47;;;;;;;;;;5051032;28;20220;-55
2022/05/08 08:51:48;;;;;;;7.20;4.37;;;;;;;;;;5054078;28;20562;-54
2022/05/08 08:54:14;;;;;;;9.63;4.70;;;;;;;;;;5055850;28;20203;-53
2022/05/08 08:56:40;;;;;;;10.00;3.90;;;;;;;;;;5059716;28;20522;-55
2022/05/08 08:59:07;;;;;;;7.83;4.80;;;;;;;;;;5068381;28;20180;-55
2022/05/08 09:01:43;;;;;;;7.70;4.23;;;;;;;;;;5050418;28;20177;-56
2022/05/08 09:04:09;;;;;;;7.90;3.63;;;;;;;;;;5054863;28;20268;-54
2022/05/08 09:06:39;;;;;;;6.77;4.17;;;;;;;;;;5035714;28;20722;-55
2022/05/08 09:09:23;;;;;;;6.80;3.90;;;;;;;;;;5053668;28;20635;-54
2022/05/08 09:11:53;;;;;;;7.97;4.33;;;;;;;;;;5042795;28;20220;-54
2022/05/08 09:14:40;;;;;;;8.20;4.80;;;;;;;;;;5052470;28;20206;-54
2022/05/08 09:17:07;;;;;;;6.27;4.03;;;;;;;;;;5042840;28;20188;-57
2022/05/08 09:19:40;;;;;;;9.43;4.20;;;;;;;;;;5055581;28;20536;-54
2022/05/08 09:22:07;;;;;;;8.57;4.80;;;;;;;;;;5048674;28;21310;-55
2022/05/08 09:24:35;;;;;;;11.03;4.60;;;;;;;;;;5043419;28;20189;-54
2022/05/08 09:27:12;;;;;;;6.67;4.50;;;;;;;;;;5031144;28;20189;-54
2022/05/08 09:29:38;;;;;;;7.60;4.47;;;;;;;;;;5035341;28;20181;-53
2022/05/08 09:32:04;;;;;;;9.73;4.10;;;;;;;;;;5056267;28;20189;-55
2022/05/08 09:34:30;;;;;;;7.00;3.80;;;;;;;;;;5051015;28;20212;-56
2022/05/08 09:37:06;;;;;;;10.40;4.63;;;;;;;;;;5055960;28;20177;-55
2022/05/08 09:39:32;;;;;;;9.97;4.27;;;;;;;;;;5055822;28;20202;-54
2022/05/08 09:41:59;;;;;;;8.30;4.07;;;;;;;;;;5041469;28;20229;-54
2022/05/08 09:44:25;;;;;;;8.17;4.30;;;;;;;;;;5057024;28;20193;-55
2022/05/08 09:46:51;;;;;;;11.50;5.63;;;;;;;;;;5063293;28;20626;-55
2022/05/08 09:49:19;;;;;;;6.00;4.17;;;;;;;;;;5039351;28;20184;-54
2022/05/08 09:51:46;;;;;;;9.50;4.17;;;;;;;;;;5029817;28;20574;-54
2022/05/08 09:54:13;;;;;;;7.87;4.27;;;;;;;;;;5034898;28;20202;-55
2022/05/08 09:56:40;;;;;;;12.90;5.43;;;;;;;;;;5035078;28;20274;-53
2022/05/08 09:59:07;;;;;;;10.10;4.63;;;;;;;;;;5033400;28;20242;-56
2022/05/08 10:01:34;;;;;;;6.03;3.90;;;;;;;;;;5056386;28;20534;-55
2022/05/08 10:04:00;;;;;;;10.33;4.60;;;;;;;;;;5029239;28;20206;-55
2022/05/08 10:06:28;;;;;;;11.33;4.60;;;;;;;;;;5053829;28;20181;-54
2022/05/08 10:13:53;;;;;;;8.63;4.77;;;;;;;;;;5036831;28;20643;-54
2022/05/08 10:14:30;;;;;;;7.23;3.63;;;;;;;;;;5036102;28;20663;-54
2022/05/08 10:17:02;;;;;;;8.17;3.97;;;;;;;;;;5059617;28;20646;-54
2022/05/08 10:19:29;;;;;;;11.63;4.70;;;;;;;;;;5055008;28;20600;-54
2022/05/08 10:22:05;;;;;;;7.27;4.00;;;;;;;;;;5055697;28;20191;-54
2022/05/08 10:24:38;;;;;;;10.90;5.23;;;;;;;;;;5058610;28;20275;-54
2022/05/08 10:27:09;;;;;;;7.57;4.30;;;;;;;;;;5031166;28;20189;-55
2022/05/08 10:29:35;;;;;;;10.53;4.80;;;;;;;;;;5057620;28;20524;-54
2022/05/08 10:32:01;;;;;;;8.40;4.37;;;;;;;;;;5051663;28;20261;-55
2022/05/08 10:34:34;;;;;;;9.20;3.80;;;;;;;;;;5050260;28;20792;-55
2022/05/08 10:37:12;;;;;;;13.37;4.43;;;;;;;;;;5052278;28;20183;-55
2022/05/08 10:39:42;;;;;;;8.70;5.00;;;;;;;;;;5034375;28;20185;-55
2022/05/08 10:42:27;;;;;;;7.77;4.33;;;;;;;;;;5035421;28;20201;-55
2022/05/08 10:44:53;;;;;;;8.77;4.43;;;;;;;;;;5049561;28;20557;-54
2022/05/08 10:47:40;;;;;;;7.83;4.20;;;;;;;;;;5034142;28;20196;-54
2022/05/08 10:50:07;;;;;;;11.00;4.87;;;;;;;;;;5056167;28;20257;-54
2022/05/08 10:52:34;;;;;;;8.77;5.40;;;;;;;;;;5048200;28;20271;-54
2022/05/08 10:55:01;;;;;;;8.83;4.93;;;;;;;;;;5030526;28;20670;-54
2022/05/08 10:57:31;;;;;;;8.73;4.40;;;;;;;;;;5055149;28;20182;-55
2022/05/08 10:59:59;;;;;;;6.33;4.20;;;;;;;;;;5058029;28;20185;-54
2022/05/08 11:02:45;;;;;;;12.30;5.03;;;;;;;;;;5034789;28;20169;-55
2022/05/08 11:05:12;;;;;;;10.50;5.30;;;;;;;;;;5026545;28;20252;-54
2022/05/08 11:07:39;;;;;;;6.53;3.77;;;;;;;;;;5043603;28;20258;-55
2022/05/08 11:10:29;;;;;;;5.63;4.23;;;;;;;;;;5053329;28;20203;-54
2022/05/08 11:13:01;;;;;;;6.77;4.80;;;;;;;;;;5035387;28;20225;-56
2022/05/08 11:15:28;;;;;;;7.90;5.07;;;;;;;;;;5048927;28;20275;-55
2022/05/08 11:18:05;;;;;;;6.80;4.03;;;;;;;;;;5048810;28;20208;-56
2022/05/08 11:20:33;;;;;;;7.93;4.13;;;;;;;;;;5059110;28;20173;-54
2022/05/08 11:22:59;;;;;;;7.60;4.70;;;;;;;;;;5051176;28;20688;-54
2022/05/08 11:25:25;;;;;;;8.30;4.93;;;;;;;;;;5030218;28;20965;-55
2022/05/08 11:27:52;;;;;;;8.67;4.73;;;;;;;;;;5052686;28;20596;-56
2022/05/08 11:30:34;;;;;;;7.40;4.43;;;;;;;;;;5051880;28;20215;-55
2022/05/08 11:36:05;;;;;;;8.13;4.73;;;;;;;;;;5052440;28;20270;-55
2022/05/08 11:38:41;;;;;;;7.67;4.40;;;;;;;;;;5049543;28;20251;-55
2022/05/08 11:41:11;;;;;;;6.83;4.30;;;;;;;;;;5050245;28;20617;-55
2022/05/08 11:43:39;;;;;;;8.33;3.90;;;;;;;;;;5028674;28;20221;-54
2022/05/08 11:46:06;;;;;;;10.40;4.80;;;;;;;;;;5049786;28;20185;-55
2022/05/08 11:48:40;;;;;;;7.03;4.50;;;;;;;;;;5056821;28;20276;-56
2022/05/08 11:51:11;;;;;;;5.93;3.67;;;;;;;;;;5051286;28;20230;-55
2022/05/08 11:53:45;;;;;;;5.57;3.93;;;;;;;;;;5050692;28;20666;-53
2022/05/08 11:56:21;;;;;;;6.20;5.07;;;;;;;;;;5042001;28;20278;-55
2022/05/08 11:58:47;;;;;;;5.73;3.60;;;;;;;;;;5032436;28;20189;-54
2022/05/08 12:01:23;;;;;;;9.10;8.20;;;;;;;;;;5032798;28;20216;-54
2022/05/08 12:03:49;;;;;;;5.17;4.50;;;;;;;;;;5048048;28;20714;-54
2022/05/08 12:06:15;;;;;;;7.00;4.70;;;;;;;;;;5056985;28;20176;-53
2022/05/08 12:08:42;;;;;;;5.23;4.10;;;;;;;;;;5056166;28;20299;-53
2022/05/08 12:11:08;;;;;;;6.83;4.30;;;;;;;;;;5053967;28;20632;-53
2022/05/08 12:13:54;;;;;;;8.73;4.53;;;;;;;;;;5057935;28;20295;-54
2022/05/08 12:16:21;;;;;;;4.90;4.40;;;;;;;;;;5037560;28;20180;-54
2022/05/08 12:19:05;;;;;;;7.80;4.23;;;;;;;;;;5049976;28;20173;-54
2022/05/08 12:21:40;;;;;;;13.30;8.43;;;;;;;;;;5057242;28;20173;-54
2022/05/08 12:24:17;;;;;;;56.00;26.43;;;;;;;;;;5050704;28;20257;-55
2022/05/08 12:26:43;;;;;;;234.67;154.73;;;;;;;;;;5048859;28;20182;-53
2022/05/08 12:29:23;;;;;;;244.53;162.90;;;;;;;;;;5053234;28;20312;-55
2022/05/08 12:31:50;;;;;;;138.10;102.70;;;;;;;;;;5041862;28;20188;-55
2022/05/08 12:34:17;;;;;;;181.30;126.13;;;;;;;;;;5059522;28;20198;-54
2022/05/08 12:36:44;;;;;;;69.10;51.03;;;;;;;;;;5037634;28;20228;-55
2022/05/08 12:39:10;;;;;;;54.53;39.00;;;;;;;;;;5056101;28;20205;-55
2022/05/08 12:41:39;;;;;;;28.10;19.77;;;;;;;;;;5045380;28;20205;-55
2022/05/08 12:44:06;;;;;;;34.57;25.03;;;;;;;;;;5050119;28;20226;-55
2022/05/08 12:46:33;;;;;;;22.23;15.50;;;;;;;;;;5055309;28;20640;-55
2022/05/08 12:49:02;;;;;;;18.07;12.23;;;;;;;;;;5030559;28;20297;-56
2022/05/08 12:51:29;;;;;;;14.13;10.17;;;;;;;;;;5033753;28;20215;-54
2022/05/08 12:53:55;;;;;;;10.93;7.33;;;;;;;;;;5048284;28;20565;-54
2022/05/08 12:56:22;;;;;;;6.80;6.13;;;;;;;;;;5046845;28;20244;-54
2022/05/08 13:01:33;;;;;;;6.90;4.93;;;;;;;;;;5059333;28;20234;-55
2022/05/08 13:04:00;;;;;;;19.13;6.37;;;;;;;;;;5050365;28;20285;-54
2022/05/08 13:06:26;;;;;;;10.17;6.07;;;;;;;;;;5048651;28;20269;-53
2022/05/08 13:08:53;;;;;;;13.83;5.40;;;;;;;;;;5051993;28;20184;-52
2022/05/08 13:11:20;;;;;;;19.20;6.70;;;;;;;;;;5028901;28;20276;-55
2022/05/08 13:13:46;;;;;;;11.27;4.83;;;;;;;;;;5030181;28;20213;-54
2022/05/08 13:16:14;;;;;;;5.47;3.83;;;;;;;;;;5048216;28;20197;-54
2022/05/08 13:18:41;;;;;;;5.57;4.03;;;;;;;;;;5055232;28;20188;-54
2022/05/08 13:21:10;;;;;;;5.93;3.73;;;;;;;;;;5041265;28;20596;-54
2022/05/08 13:23:37;;;;;;;7.83;4.13;;;;;;;;;;5060038;28;20235;-54
2022/05/08 13:26:03;;;;;;;5.30;3.77;;;;;;;;;;5053118;28;20632;-54
2022/05/08 13:28:31;;;;;;;6.33;4.00;;;;;;;;;;5040853;28;20243;-54
2022/05/08 13:31:00;;;;;;;4.27;3.73;;;;;;;;;;5059467;28;20177;-54
2022/05/08 13:33:27;;;;;;;7.47;3.80;;;;;;;;;;5038128;28;20211;-54
2022/05/08 13:35:53;;;;;;;7.70;4.27;;;;;;;;;;5061726;28;20191;-54
2022/05/08 13:38:29;;;;;;;7.83;3.83;;;;;;;;;;5036433;28;20597;-54
2022/05/08 13:40:56;;;;;;;5.50;3.73;;;;;;;;;;5038736;28;20296;-54
2022/05/08 13:43:25;;;;;;;6.23;3.90;;;;;;;;;;5053592;28;20247;-53
2022/05/08 13:45:52;;;;;;;5.53;3.60;;;;;;;;;;5033627;28;20292;-55
2022/05/08 13:48:19;;;;;;;8.90;4.47;;;;;;;;;;5058175;28;20180;-53
2022/05/08 13:50:47;;;;;;;7.37;4.10;;;;;;;;;;5054698;28;20174;-53
2022/05/08 13:53:13;;;;;;;6.10;4.27;;;;;;;;;;5049863;28;20221;-54
2022/05/08 13:55:41;;;;;;;6.67;4.27;;;;;;;;;;5035252;28;20180;-54
2022/05/08 13:58:13;;;;;;;3.90;3.50;;;;;;;;;;5039432;28;20612;-54
2022/05/08 14:00:40;;;;;;;5.50;3.53;;;;;;;;;;5058817;28;20183;-54
2022/05/08 14:03:09;;;;;;;7.30;6.53;;;;;;;;;;5053451;28;20650;-54
2022/05/08 14:05:35;;;;;;;4.87;3.60;;;;;;;;;;5060343;28;20193;-53
2022/05/08 14:08:03;;;;;;;6.10;3.30;;;;;;;;;;5032635;28;20191;-53
2022/05/08 14:10:29;;;;;;;7.93;4.07;;;;;;;;;;5053819;28;20184;-53
2022/05/08 14:12:55;;;;;;;5.63;4.17;;;;;;;;;;5036292;28;20275;-55
2022/05/08 14:15:23;;;;;;;6.90;3.90;;;;;;;;;;5030985;28;20212;-53
2022/05/08 14:17:50;;;;;;;4.47;3.40;;;;;;;;;;5058559;28;20603;-53
2022/05/08 14:20:17;;;;;;;8.97;8.10;;;;;;;;;;5050905;28;20193;-54
2022/05/08 14:22:44;;;;;;;6.50;3.60;;;;;;;;;;5058009;28;20745;-54
2022/05/08 14:25:11;;;;;;;5.87;3.40;;;;;;;;;;5047605;28;20189;-54
2022/05/08 14:27:37;;;;;;;7.27;4.30;;;;;;;;;;5048602;28;20227;-54
2022/05/08 14:30:06;;;;;;;4.27;3.50;;;;;;;;;;5051746;28;20186;-53
2022/05/08 14:38:06;;;;;;;6.37;3.47;;;;;;;;;;5042231;28;20183;-54
2022/05/08 14:40:32;;;;;;;5.30;4.47;;;;;;;;;;5051048;28;20178;-55
2022/05/08 14:42:59;;;;;;;5.20;3.40;;;;;;;;;;5032588;28;20259;-53
2022/05/08 14:45:26;;;;;;;4.87;4.03;;;;;;;;;;5055498;28;20211;-53
2022/05/08 14:47:52;;;;;;;5.60;3.77;;;;;;;;;;5049375;28;20624;-54
2022/05/08 14:50:18;;;;;;;7.33;4.20;;;;;;;;;;5054142;28;20195;-54
2022/05/08 14:52:44;;;;;;;9.73;3.77;;;;;;;;;;5050365;28;20192;-54
2022/05/08 14:55:10;;;;;;;6.90;4.83;;;;;;;;;;5052437;28;20208;-54
2022/05/08 14:57:36;;;;;;;5.50;3.97;;;;;;;;;;5051574;28;20185;-55
2022/05/08 15:00:03;;;;;;;7.23;4.07;;;;;;;;;;5039149;28;20546;-55
2022/05/08 15:02:29;;;;;;;5.80;4.93;;;;;;;;;;5032066;28;20213;-53
2022/05/08 15:04:55;;;;;;;6.70;4.80;;;;;;;;;;5054288;28;20205;-54
2022/05/08 15:07:23;;;;;;;5.07;4.23;;;;;;;;;;5058050;28;20320;-54
2022/05/08 15:09:49;;;;;;;4.50;4.07;;;;;;;;;;5052743;28;20279;-54
2022/05/08 15:12:17;;;;;;;7.17;4.50;;;;;;;;;;5050876;28;20387;-53
2022/05/08 15:14:44;;;;;;;7.37;3.77;;;;;;;;;;5034588;28;20215;-54
2022/05/08 15:17:10;;;;;;;4.93;3.50;;;;;;;;;;5057839;28;20692;-55